Mc Cool, Mississippi
Current Conditions -  °F | °C
As of 2:15 PM on Wednesday 26 Nov 2014 (Local Time) from KSTF Reporting Station
Scattered Clouds Scattered Clouds  
Wind Chill: 15°   Ceiling: Unl
Heat Index: 15°   Visibility: NA
Dew Point: -1°   Wind: 7mph
Humidity: 34%   Direction: 220°SW
Pressure: 30.04"   Gusts: NA
Location:  33.1664°N, 89.3301°W
Report Text: KSTF 262015Z AUTO 22006KT SCT110 15/M01 A3004 RMK AO2 PWINO
Loading
Personal Weather Stations






























Interactive Weather Map New forecast layout! Learn more

10-Day Weather Forecast

Advertisements
Track Severe Weather on mobile